sensor_id;sensor_type;location;lat;lon;timestamp;temperature;humidity
8332;DHT22;4203;48.144;14.118;2022-07-09T00:00:58;12.40;99.90
8332;DHT22;4203;48.144;14.118;2022-07-09T00:03:26;12.50;99.90
8332;DHT22;4203;48.144;14.118;2022-07-09T00:05:53;12.50;99.90
8332;DHT22;4203;48.144;14.118;2022-07-09T00:08:20;12.60;99.90
8332;DHT22;4203;48.144;14.118;2022-07-09T00:10:47;12.60;99.90
8332;DHT22;4203;48.144;14.118;2022-07-09T00:13:16;12.60;99.90
8332;DHT22;4203;48.144;14.118;2022-07-09T00:15:43;12.60;99.90
8332;DHT22;4203;48.144;14.118;2022-07-09T00:18:10;12.70;99.90
8332;DHT22;4203;48.144;14.118;2022-07-09T00:20:38;12.80;99.90
8332;DHT22;4203;48.144;14.118;2022-07-09T00:23:05;12.80;99.90
8332;DHT22;4203;48.144;14.118;2022-07-09T00:25:32;12.80;99.90
8332;DHT22;4203;48.144;14.118;2022-07-09T00:27:59;12.90;99.90
8332;DHT22;4203;48.144;14.118;2022-07-09T00:30:28;12.90;99.90
8332;DHT22;4203;48.144;14.118;2022-07-09T00:32:56;12.90;99.90
8332;DHT22;4203;48.144;14.118;2022-07-09T00:35:23;12.90;99.90
8332;DHT22;4203;48.144;14.118;2022-07-09T00:37:50;12.90;99.90
8332;DHT22;4203;48.144;14.118;2022-07-09T00:40:18;12.90;99.90
8332;DHT22;4203;48.144;14.118;2022-07-09T00:42:46;13.00;99.90
8332;DHT22;4203;48.144;14.118;2022-07-09T00:45:13;13.00;99.90
8332;DHT22;4203;48.144;14.118;2022-07-09T00:47:44;13.00;99.90
8332;DHT22;4203;48.144;14.118;2022-07-09T00:50:11;13.00;99.90
8332;DHT22;4203;48.144;14.118;2022-07-09T00:52:39;13.00;99.90
8332;DHT22;4203;48.144;14.118;2022-07-09T00:55:10;13.10;99.90
8332;DHT22;4203;48.144;14.118;2022-07-09T00:57:38;13.10;99.90
8332;DHT22;4203;48.144;14.118;2022-07-09T01:00:06;13.10;99.90
8332;DHT22;4203;48.144;14.118;2022-07-09T01:02:34;13.20;99.90
8332;DHT22;4203;48.144;14.118;2022-07-09T01:05:04;13.10;99.90
8332;DHT22;4203;48.144;14.118;2022-07-09T01:07:31;13.10;99.90
8332;DHT22;4203;48.144;14.118;2022-07-09T01:09:58;13.10;99.90
8332;DHT22;4203;48.144;14.118;2022-07-09T01:12:26;13.20;99.90
8332;DHT22;4203;48.144;14.118;2022-07-09T01:14:54;13.20;99.90
8332;DHT22;4203;48.144;14.118;2022-07-09T01:17:21;13.20;99.90
8332;DHT22;4203;48.144;14.118;2022-07-09T01:19:48;13.20;99.90
8332;DHT22;4203;48.144;14.118;2022-07-09T01:22:17;13.20;99.90
8332;DHT22;4203;48.144;14.118;2022-07-09T01:24:44;13.20;99.90
8332;DHT22;4203;48.144;14.118;2022-07-09T01:27:12;13.30;99.90
8332;DHT22;4203;48.144;14.118;2022-07-09T01:29:39;13.30;99.90
8332;DHT22;4203;48.144;14.118;2022-07-09T01:32:09;13.30;99.90
8332;DHT22;4203;48.144;14.118;2022-07-09T01:34:36;13.20;99.90
8332;DHT22;4203;48.144;14.118;2022-07-09T01:37:04;13.30;99.90
8332;DHT22;4203;48.144;14.118;2022-07-09T01:39:33;13.30;99.90
8332;DHT22;4203;48.144;14.118;2022-07-09T01:42:00;13.30;99.90
8332;DHT22;4203;48.144;14.118;2022-07-09T01:44:27;13.30;99.90
8332;DHT22;4203;48.144;14.118;2022-07-09T01:46:54;13.30;99.90
8332;DHT22;4203;48.144;14.118;2022-07-09T01:49:22;13.30;99.90
8332;DHT22;4203;48.144;14.118;2022-07-09T01:51:49;13.30;99.90
8332;DHT22;4203;48.144;14.118;2022-07-09T01:54:16;13.30;99.90
8332;DHT22;4203;48.144;14.118;2022-07-09T01:56:45;13.30;99.90
8332;DHT22;4203;48.144;14.118;2022-07-09T01:59:12;13.30;99.90
8332;DHT22;4203;48.144;14.118;2022-07-09T02:01:39;13.30;99.90
8332;DHT22;4203;48.144;14.118;2022-07-09T02:04:07;13.30;99.90
8332;DHT22;4203;48.144;14.118;2022-07-09T02:06:34;13.30;99.90
8332;DHT22;4203;48.144;14.118;2022-07-09T02:09:01;13.30;99.90
8332;DHT22;4203;48.144;14.118;2022-07-09T02:11:28;13.30;99.90
8332;DHT22;4203;48.144;14.118;2022-07-09T02:13:57;13.30;99.90
8332;DHT22;4203;48.144;14.118;2022-07-09T02:16:24;13.30;99.90
8332;DHT22;4203;48.144;14.118;2022-07-09T02:18:51;13.30;99.90
8332;DHT22;4203;48.144;14.118;2022-07-09T02:21:18;13.40;99.90
8332;DHT22;4203;48.144;14.118;2022-07-09T02:23:46;13.40;99.90
8332;DHT22;4203;48.144;14.118;2022-07-09T02:26:14;13.40;99.90
8332;DHT22;4203;48.144;14.118;2022-07-09T02:28:42;13.40;99.90
8332;DHT22;4203;48.144;14.118;2022-07-09T02:31:10;13.40;99.90
8332;DHT22;4203;48.144;14.118;2022-07-09T02:33:37;13.40;99.90
8332;DHT22;4203;48.144;14.118;2022-07-09T02:36:05;13.40;99.90
8332;DHT22;4203;48.144;14.118;2022-07-09T02:38:32;13.40;99.90
8332;DHT22;4203;48.144;14.118;2022-07-09T02:40:59;13.40;99.90
8332;DHT22;4203;48.144;14.118;2022-07-09T02:43:27;13.40;99.90
8332;DHT22;4203;48.144;14.118;2022-07-09T02:45:54;13.40;99.90
8332;DHT22;4203;48.144;14.118;2022-07-09T02:48:24;13.40;99.90
8332;DHT22;4203;48.144;14.118;2022-07-09T02:50:52;13.40;99.90
8332;DHT22;4203;48.144;14.118;2022-07-09T02:53:20;13.40;99.90
8332;DHT22;4203;48.144;14.118;2022-07-09T02:55:47;13.40;99.90
8332;DHT22;4203;48.144;14.118;2022-07-09T02:58:14;13.40;99.90
8332;DHT22;4203;48.144;14.118;2022-07-09T03:00:42;14.10;99.90
8332;DHT22;4203;48.144;14.118;2022-07-09T03:03:09;13.40;99.90
8332;DHT22;4203;48.144;14.118;2022-07-09T03:05:39;13.40;99.90
8332;DHT22;4203;48.144;14.118;2022-07-09T03:08:06;13.40;99.90
8332;DHT22;4203;48.144;14.118;2022-07-09T03:10:34;13.40;99.90
8332;DHT22;4203;48.144;14.118;2022-07-09T03:13:02;13.30;99.90
8332;DHT22;4203;48.144;14.118;2022-07-09T03:15:29;13.30;99.90
8332;DHT22;4203;48.144;14.118;2022-07-09T03:17:57;13.40;99.90
8332;DHT22;4203;48.144;14.118;2022-07-09T03:20:24;13.30;99.90
8332;DHT22;4203;48.144;14.118;2022-07-09T03:22:53;13.30;99.90
8332;DHT22;4203;48.144;14.118;2022-07-09T03:25:21;13.40;99.90
8332;DHT22;4203;48.144;14.118;2022-07-09T03:27:48;13.30;99.90
8332;DHT22;4203;48.144;14.118;2022-07-09T03:30:15;13.30;99.90
8332;DHT22;4203;48.144;14.118;2022-07-09T03:32:43;13.40;99.90
8332;DHT22;4203;48.144;14.118;2022-07-09T03:35:12;13.40;99.90
8332;DHT22;4203;48.144;14.118;2022-07-09T03:37:39;13.40;99.90
8332;DHT22;4203;48.144;14.118;2022-07-09T03:40:09;13.30;99.90
8332;DHT22;4203;48.144;14.118;2022-07-09T03:42:36;13.40;99.90
8332;DHT22;4203;48.144;14.118;2022-07-09T03:45:04;13.40;99.90
8332;DHT22;4203;48.144;14.118;2022-07-09T03:47:32;13.40;99.90
8332;DHT22;4203;48.144;14.118;2022-07-09T03:49:59;13.50;99.90
8332;DHT22;4203;48.144;14.118;2022-07-09T03:52:26;13.50;99.90
8332;DHT22;4203;48.144;14.118;2022-07-09T03:54:54;13.50;99.90
8332;DHT22;4203;48.144;14.118;2022-07-09T03:57:22;13.50;99.90
8332;DHT22;4203;48.144;14.118;2022-07-09T03:59:50;13.50;99.90
8332;DHT22;4203;48.144;14.118;2022-07-09T04:02:17;13.50;99.90
8332;DHT22;4203;48.144;14.118;2022-07-09T04:04:44;13.60;99.90
8332;DHT22;4203;48.144;14.118;2022-07-09T04:07:11;13.60;99.90
8332;DHT22;4203;48.144;14.118;2022-07-09T04:09:39;13.70;99.90
8332;DHT22;4203;48.144;14.118;2022-07-09T04:12:07;13.70;99.90
8332;DHT22;4203;48.144;14.118;2022-07-09T04:14:36;13.70;99.90
8332;DHT22;4203;48.144;14.118;2022-07-09T04:17:04;13.70;99.90
8332;DHT22;4203;48.144;14.118;2022-07-09T04:19:32;13.80;99.90
8332;DHT22;4203;48.144;14.118;2022-07-09T04:21:59;13.80;99.90
8332;DHT22;4203;48.144;14.118;2022-07-09T04:24:28;13.80;99.90
8332;DHT22;4203;48.144;14.118;2022-07-09T04:26:55;13.90;99.90
8332;DHT22;4203;48.144;14.118;2022-07-09T04:29:23;13.90;99.90
8332;DHT22;4203;48.144;14.118;2022-07-09T04:31:51;14.00;99.90
8332;DHT22;4203;48.144;14.118;2022-07-09T04:34:19;14.10;99.90
8332;DHT22;4203;48.144;14.118;2022-07-09T04:36:46;14.10;99.90
8332;DHT22;4203;48.144;14.118;2022-07-09T04:39:15;14.20;99.90
8332;DHT22;4203;48.144;14.118;2022-07-09T04:41:42;14.30;99.90
8332;DHT22;4203;48.144;14.118;2022-07-09T04:44:09;14.40;99.90
8332;DHT22;4203;48.144;14.118;2022-07-09T04:46:41;14.60;99.90
8332;DHT22;4203;48.144;14.118;2022-07-09T04:49:10;14.80;99.90
8332;DHT22;4203;48.144;14.118;2022-07-09T04:51:37;14.80;99.90
8332;DHT22;4203;48.144;14.118;2022-07-09T04:54:04;15.00;99.90
8332;DHT22;4203;48.144;14.118;2022-07-09T04:56:31;15.20;99.90
8332;DHT22;4203;48.144;14.118;2022-07-09T04:58:59;15.40;99.90
8332;DHT22;4203;48.144;14.118;2022-07-09T05:01:28;15.40;99.90
8332;DHT22;4203;48.144;14.118;2022-07-09T05:03:56;15.40;99.90
8332;DHT22;4203;48.144;14.118;2022-07-09T05:06:24;15.50;99.90
8332;DHT22;4203;48.144;14.118;2022-07-09T05:08:52;15.50;99.90
8332;DHT22;4203;48.144;14.118;2022-07-09T05:11:19;15.60;99.90
8332;DHT22;4203;48.144;14.118;2022-07-09T05:13:46;15.70;99.90
8332;DHT22;4203;48.144;14.118;2022-07-09T05:16:14;15.80;99.90
8332;DHT22;4203;48.144;14.118;2022-07-09T05:18:42;15.90;99.90
8332;DHT22;4203;48.144;14.118;2022-07-09T05:21:09;16.00;99.90
8332;DHT22;4203;48.144;14.118;2022-07-09T05:23:38;16.20;99.90
8332;DHT22;4203;48.144;14.118;2022-07-09T05:26:06;16.30;99.90
8332;DHT22;4203;48.144;14.118;2022-07-09T05:28:33;16.50;99.90
8332;DHT22;4203;48.144;14.118;2022-07-09T05:31:01;16.60;99.90
8332;DHT22;4203;48.144;14.118;2022-07-09T05:33:29;16.60;99.90
8332;DHT22;4203;48.144;14.118;2022-07-09T05:35:57;16.70;99.90
8332;DHT22;4203;48.144;14.118;2022-07-09T05:38:25;16.70;99.90
8332;DHT22;4203;48.144;14.118;2022-07-09T05:40:53;16.80;99.90
8332;DHT22;4203;48.144;14.118;2022-07-09T05:43:23;16.80;99.90
8332;DHT22;4203;48.144;14.118;2022-07-09T05:45:50;16.90;99.90
8332;DHT22;4203;48.144;14.118;2022-07-09T05:48:18;17.00;99.90
8332;DHT22;4203;48.144;14.118;2022-07-09T05:50:45;17.10;99.90
8332;DHT22;4203;48.144;14.118;2022-07-09T05:53:12;17.00;99.90
8332;DHT22;4203;48.144;14.118;2022-07-09T05:55:39;17.10;99.90
8332;DHT22;4203;48.144;14.118;2022-07-09T05:58:08;17.00;99.90
8332;DHT22;4203;48.144;14.118;2022-07-09T06:00:35;17.00;99.90
8332;DHT22;4203;48.144;14.118;2022-07-09T06:03:03;17.00;99.90
8332;DHT22;4203;48.144;14.118;2022-07-09T06:05:30;17.00;99.90
8332;DHT22;4203;48.144;14.118;2022-07-09T06:07:57;17.10;99.90
8332;DHT22;4203;48.144;14.118;2022-07-09T06:10:24;17.10;99.90
8332;DHT22;4203;48.144;14.118;2022-07-09T06:12:52;17.10;99.90
8332;DHT22;4203;48.144;14.118;2022-07-09T06:15:20;17.30;99.90
8332;DHT22;4203;48.144;14.118;2022-07-09T06:17:48;17.30;99.90
8332;DHT22;4203;48.144;14.118;2022-07-09T06:20:16;17.40;99.90
8332;DHT22;4203;48.144;14.118;2022-07-09T06:22:43;17.30;99.90
8332;DHT22;4203;48.144;14.118;2022-07-09T06:25:11;17.40;99.90
8332;DHT22;4203;48.144;14.118;2022-07-09T06:27:39;17.50;99.90
8332;DHT22;4203;48.144;14.118;2022-07-09T06:30:08;17.50;99.90
8332;DHT22;4203;48.144;14.118;2022-07-09T06:32:37;17.50;99.90
8332;DHT22;4203;48.144;14.118;2022-07-09T06:35:05;17.50;99.90
8332;DHT22;4203;48.144;14.118;2022-07-09T06:37:32;17.60;99.90
8332;DHT22;4203;48.144;14.118;2022-07-09T06:39:59;17.50;99.90
8332;DHT22;4203;48.144;14.118;2022-07-09T06:42:29;17.50;99.90
8332;DHT22;4203;48.144;14.118;2022-07-09T06:44:56;17.50;99.90
8332;DHT22;4203;48.144;14.118;2022-07-09T06:47:23;17.50;99.90
8332;DHT22;4203;48.144;14.118;2022-07-09T06:49:52;17.60;99.90
8332;DHT22;4203;48.144;14.118;2022-07-09T06:52:19;17.50;99.90
8332;DHT22;4203;48.144;14.118;2022-07-09T06:54:46;17.50;99.90
8332;DHT22;4203;48.144;14.118;2022-07-09T06:57:14;17.50;99.90
8332;DHT22;4203;48.144;14.118;2022-07-09T06:59:42;17.60;99.90
8332;DHT22;4203;48.144;14.118;2022-07-09T07:02:11;17.60;99.90
8332;DHT22;4203;48.144;14.118;2022-07-09T07:04:39;17.60;99.90
8332;DHT22;4203;48.144;14.118;2022-07-09T07:07:07;17.70;99.90
8332;DHT22;4203;48.144;14.118;2022-07-09T07:09:34;17.80;99.90
8332;DHT22;4203;48.144;14.118;2022-07-09T07:12:02;18.00;99.90
8332;DHT22;4203;48.144;14.118;2022-07-09T07:14:29;18.00;99.90
8332;DHT22;4203;48.144;14.118;2022-07-09T07:16:56;18.20;99.90
8332;DHT22;4203;48.144;14.118;2022-07-09T07:19:24;18.20;99.90
8332;DHT22;4203;48.144;14.118;2022-07-09T07:21:51;18.50;99.90
8332;DHT22;4203;48.144;14.118;2022-07-09T07:24:19;18.80;99.90
8332;DHT22;4203;48.144;14.118;2022-07-09T07:26:47;19.10;99.90
8332;DHT22;4203;48.144;14.118;2022-07-09T07:29:14;19.30;99.90
8332;DHT22;4203;48.144;14.118;2022-07-09T07:31:41;19.30;99.90
8332;DHT22;4203;48.144;14.118;2022-07-09T07:34:08;19.40;99.90
8332;DHT22;4203;48.144;14.118;2022-07-09T07:36:35;19.30;99.90
8332;DHT22;4203;48.144;14.118;2022-07-09T07:39:03;19.40;99.90
8332;DHT22;4203;48.144;14.118;2022-07-09T07:41:32;19.40;99.90
8332;DHT22;4203;48.144;14.118;2022-07-09T07:43:59;19.40;99.90
8332;DHT22;4203;48.144;14.118;2022-07-09T07:46:26;19.40;99.90
8332;DHT22;4203;48.144;14.118;2022-07-09T07:48:53;19.40;99.90
8332;DHT22;4203;48.144;14.118;2022-07-09T07:51:21;19.60;99.90
8332;DHT22;4203;48.144;14.118;2022-07-09T07:53:48;19.90;99.90
8332;DHT22;4203;48.144;14.118;2022-07-09T07:56:15;20.10;99.90
8332;DHT22;4203;48.144;14.118;2022-07-09T07:58:44;19.80;99.90
8332;DHT22;4203;48.144;14.118;2022-07-09T08:01:11;19.70;99.90
8332;DHT22;4203;48.144;14.118;2022-07-09T08:03:38;19.90;99.90
8332;DHT22;4203;48.144;14.118;2022-07-09T08:06:05;20.30;99.90
8332;DHT22;4203;48.144;14.118;2022-07-09T08:08:33;20.60;99.90
8332;DHT22;4203;48.144;14.118;2022-07-09T08:11:00;20.90;99.90
8332;DHT22;4203;48.144;14.118;2022-07-09T08:13:28;20.90;99.90
8332;DHT22;4203;48.144;14.118;2022-07-09T08:15:57;21.00;99.90
8332;DHT22;4203;48.144;14.118;2022-07-09T08:18:24;21.10;99.90
8332;DHT22;4203;48.144;14.118;2022-07-09T08:20:51;21.30;99.90
8332;DHT22;4203;48.144;14.118;2022-07-09T08:23:18;21.20;99.90
8332;DHT22;4203;48.144;14.118;2022-07-09T08:25:46;21.20;99.90
8332;DHT22;4203;48.144;14.118;2022-07-09T08:28:13;21.10;99.90
8332;DHT22;4203;48.144;14.118;2022-07-09T08:30:40;20.90;99.90
8332;DHT22;4203;48.144;14.118;2022-07-09T08:33:09;20.80;99.90
8332;DHT22;4203;48.144;14.118;2022-07-09T08:35:36;20.80;99.90
8332;DHT22;4203;48.144;14.118;2022-07-09T08:38:03;20.80;99.90
8332;DHT22;4203;48.144;14.118;2022-07-09T08:40:30;20.80;99.90
8332;DHT22;4203;48.144;14.118;2022-07-09T08:43:01;20.70;99.90
8332;DHT22;4203;48.144;14.118;2022-07-09T08:45:30;20.80;99.90
8332;DHT22;4203;48.144;14.118;2022-07-09T08:48:00;21.00;99.90
8332;DHT22;4203;48.144;14.118;2022-07-09T08:50:28;20.80;99.90
8332;DHT22;4203;48.144;14.118;2022-07-09T08:52:56;20.80;99.90
8332;DHT22;4203;48.144;14.118;2022-07-09T08:55:23;20.90;99.90
8332;DHT22;4203;48.144;14.118;2022-07-09T08:57:51;20.90;99.90
8332;DHT22;4203;48.144;14.118;2022-07-09T09:00:18;20.90;99.90
8332;DHT22;4203;48.144;14.118;2022-07-09T09:02:45;21.20;99.90
8332;DHT22;4203;48.144;14.118;2022-07-09T09:05:14;21.60;99.90
8332;DHT22;4203;48.144;14.118;2022-07-09T09:07:44;21.60;99.90
8332;DHT22;4203;48.144;14.118;2022-07-09T09:10:21;21.90;99.90
8332;DHT22;4203;48.144;14.118;2022-07-09T09:12:54;22.40;99.90
8332;DHT22;4203;48.144;14.118;2022-07-09T09:15:22;23.00;99.90
8332;DHT22;4203;48.144;14.118;2022-07-09T09:17:49;23.30;99.90
8332;DHT22;4203;48.144;14.118;2022-07-09T09:20:17;24.10;99.90
8332;DHT22;4203;48.144;14.118;2022-07-09T09:22:48;24.00;99.90
8332;DHT22;4203;48.144;14.118;2022-07-09T09:25:17;24.10;99.90
8332;DHT22;4203;48.144;14.118;2022-07-09T09:27:52;24.00;99.90
8332;DHT22;4203;48.144;14.118;2022-07-09T09:30:19;24.20;99.90
8332;DHT22;4203;48.144;14.118;2022-07-09T09:32:54;24.30;99.90
8332;DHT22;4203;48.144;14.118;2022-07-09T09:35:23;24.40;99.90
8332;DHT22;4203;48.144;14.118;2022-07-09T09:37:52;24.50;99.90
8332;DHT22;4203;48.144;14.118;2022-07-09T09:40:20;24.40;99.90
8332;DHT22;4203;48.144;14.118;2022-07-09T09:42:48;25.00;99.90
8332;DHT22;4203;48.144;14.118;2022-07-09T09:45:16;25.60;99.90
8332;DHT22;4203;48.144;14.118;2022-07-09T09:47:46;26.10;99.90
8332;DHT22;4203;48.144;14.118;2022-07-09T09:50:18;26.20;99.90
8332;DHT22;4203;48.144;14.118;2022-07-09T09:52:46;26.60;99.90
8332;DHT22;4203;48.144;14.118;2022-07-09T09:55:17;26.90;99.90
8332;DHT22;4203;48.144;14.118;2022-07-09T09:57:45;26.90;99.90
8332;DHT22;4203;48.144;14.118;2022-07-09T10:00:14;27.20;99.90
8332;DHT22;4203;48.144;14.118;2022-07-09T10:02:43;27.60;99.90
8332;DHT22;4203;48.144;14.118;2022-07-09T10:05:10;28.10;99.90
8332;DHT22;4203;48.144;14.118;2022-07-09T10:07:39;28.40;99.90
8332;DHT22;4203;48.144;14.118;2022-07-09T10:10:07;28.60;98.80
8332;DHT22;4203;48.144;14.118;2022-07-09T10:12:36;28.10;98.20
8332;DHT22;4203;48.144;14.118;2022-07-09T10:15:15;27.80;99.90
8332;DHT22;4203;48.144;14.118;2022-07-09T10:17:46;28.20;99.90
8332;DHT22;4203;48.144;14.118;2022-07-09T10:20:14;28.40;99.70
8332;DHT22;4203;48.144;14.118;2022-07-09T10:22:42;28.50;99.90
8332;DHT22;4203;48.144;14.118;2022-07-09T10:25:11;28.60;99.90
8332;DHT22;4203;48.144;14.118;2022-07-09T10:27:45;28.40;98.70
8332;DHT22;4203;48.144;14.118;2022-07-09T10:30:23;28.40;97.00
8332;DHT22;4203;48.144;14.118;2022-07-09T10:33:05;27.80;96.40
8332;DHT22;4203;48.144;14.118;2022-07-09T10:35:39;27.60;99.90
8332;DHT22;4203;48.144;14.118;2022-07-09T10:38:07;27.60;99.90
8332;DHT22;4203;48.144;14.118;2022-07-09T10:40:39;27.80;98.90
8332;DHT22;4203;48.144;14.118;2022-07-09T10:43:08;28.00;99.80
8332;DHT22;4203;48.144;14.118;2022-07-09T10:45:37;28.10;99.20
8332;DHT22;4203;48.144;14.118;2022-07-09T10:48:06;27.90;98.80
8332;DHT22;4203;48.144;14.118;2022-07-09T10:50:39;28.30;99.90
8332;DHT22;4203;48.144;14.118;2022-07-09T10:53:06;28.60;98.30
8332;DHT22;4203;48.144;14.118;2022-07-09T10:55:34;28.80;98.30
8332;DHT22;4203;48.144;14.118;2022-07-09T10:58:02;28.60;99.90
8332;DHT22;4203;48.144;14.118;2022-07-09T11:00:34;28.50;99.40
8332;DHT22;4203;48.144;14.118;2022-07-09T11:03:03;28.00;96.30
8332;DHT22;4203;48.144;14.118;2022-07-09T11:05:32;27.00;98.30
8332;DHT22;4203;48.144;14.118;2022-07-09T11:08:04;26.90;98.90
8332;DHT22;4203;48.144;14.118;2022-07-09T11:10:34;27.10;99.90
8332;DHT22;4203;48.144;14.118;2022-07-09T11:13:02;27.40;99.40
8332;DHT22;4203;48.144;14.118;2022-07-09T11:15:32;27.90;99.20
8332;DHT22;4203;48.144;14.118;2022-07-09T11:18:06;28.50;99.90
8332;DHT22;4203;48.144;14.118;2022-07-09T11:20:38;29.20;98.70
8332;DHT22;4203;48.144;14.118;2022-07-09T11:23:08;28.70;95.10
8332;DHT22;4203;48.144;14.118;2022-07-09T11:25:35;28.10;98.50
8332;DHT22;4203;48.144;14.118;2022-07-09T11:28:03;27.80;99.90
8332;DHT22;4203;48.144;14.118;2022-07-09T11:30:31;27.90;99.80
8332;DHT22;4203;48.144;14.118;2022-07-09T11:33:01;28.10;96.40
8332;DHT22;4203;48.144;14.118;2022-07-09T11:35:30;28.00;98.60
8332;DHT22;4203;48.144;14.118;2022-07-09T11:38:00;27.70;99.00
8332;DHT22;4203;48.144;14.118;2022-07-09T11:40:28;27.90;99.90
8332;DHT22;4203;48.144;14.118;2022-07-09T11:42:56;28.10;98.00
8332;DHT22;4203;48.144;14.118;2022-07-09T11:45:25;28.30;99.90
8332;DHT22;4203;48.144;14.118;2022-07-09T11:48:03;28.60;96.40
8332;DHT22;4203;48.144;14.118;2022-07-09T11:50:33;28.70;96.20
8332;DHT22;4203;48.144;14.118;2022-07-09T11:53:01;28.60;93.60
8332;DHT22;4203;48.144;14.118;2022-07-09T11:55:29;28.30;98.20
8332;DHT22;4203;48.144;14.118;2022-07-09T11:57:58;28.00;99.30
8332;DHT22;4203;48.144;14.118;2022-07-09T12:00:27;28.20;97.80
8332;DHT22;4203;48.144;14.118;2022-07-09T12:02:56;28.10;96.40
8332;DHT22;4203;48.144;14.118;2022-07-09T12:05:27;28.40;95.80
8332;DHT22;4203;48.144;14.118;2022-07-09T12:07:59;28.70;97.50
8332;DHT22;4203;48.144;14.118;2022-07-09T12:10:29;28.60;95.10
8332;DHT22;4203;48.144;14.118;2022-07-09T12:12:58;28.50;95.50
8332;DHT22;4203;48.144;14.118;2022-07-09T12:15:26;28.70;96.70
8332;DHT22;4203;48.144;14.118;2022-07-09T12:17:54;28.40;96.30
8332;DHT22;4203;48.144;14.118;2022-07-09T12:20:23;28.10;95.50
8332;DHT22;4203;48.144;14.118;2022-07-09T12:22:51;27.80;95.70
8332;DHT22;4203;48.144;14.118;2022-07-09T12:25:20;27.60;94.80
8332;DHT22;4203;48.144;14.118;2022-07-09T12:27:48;27.30;97.30
8332;DHT22;4203;48.144;14.118;2022-07-09T12:30:16;27.10;97.00
8332;DHT22;4203;48.144;14.118;2022-07-09T12:32:43;27.10;99.90
8332;DHT22;4203;48.144;14.118;2022-07-09T12:35:12;27.20;98.10
8332;DHT22;4203;48.144;14.118;2022-07-09T12:37:39;27.20;96.60
8332;DHT22;4203;48.144;14.118;2022-07-09T12:40:09;27.50;96.50
8332;DHT22;4203;48.144;14.118;2022-07-09T12:42:38;27.50;98.60
8332;DHT22;4203;48.144;14.118;2022-07-09T12:45:07;27.60;99.10
8332;DHT22;4203;48.144;14.118;2022-07-09T12:47:34;27.80;98.90
8332;DHT22;4203;48.144;14.118;2022-07-09T12:50:01;27.90;96.00
8332;DHT22;4203;48.144;14.118;2022-07-09T12:52:30;28.00;99.00
8332;DHT22;4203;48.144;14.118;2022-07-09T12:54:59;28.00;98.70
8332;DHT22;4203;48.144;14.118;2022-07-09T12:57:26;27.80;97.50
8332;DHT22;4203;48.144;14.118;2022-07-09T12:59:55;27.70;98.10
8332;DHT22;4203;48.144;14.118;2022-07-09T13:02:23;27.60;98.90
8332;DHT22;4203;48.144;14.118;2022-07-09T13:04:50;27.60;97.20
8332;DHT22;4203;48.144;14.118;2022-07-09T13:07:17;27.50;97.10
8332;DHT22;4203;48.144;14.118;2022-07-09T13:09:44;27.10;99.00
8332;DHT22;4203;48.144;14.118;2022-07-09T13:12:11;26.60;95.90
8332;DHT22;4203;48.144;14.118;2022-07-09T13:14:38;26.10;95.90
8332;DHT22;4203;48.144;14.118;2022-07-09T13:17:07;25.50;95.60
8332;DHT22;4203;48.144;14.118;2022-07-09T13:19:34;25.10;96.60
8332;DHT22;4203;48.144;14.118;2022-07-09T13:22:02;25.10;98.40
8332;DHT22;4203;48.144;14.118;2022-07-09T13:24:29;25.30;98.80
8332;DHT22;4203;48.144;14.118;2022-07-09T13:26:56;25.40;98.50
8332;DHT22;4203;48.144;14.118;2022-07-09T13:29:24;25.50;96.70
8332;DHT22;4203;48.144;14.118;2022-07-09T13:31:51;25.80;99.10
8332;DHT22;4203;48.144;14.118;2022-07-09T13:34:19;26.50;99.90
8332;DHT22;4203;48.144;14.118;2022-07-09T13:36:47;27.00;95.70
8332;DHT22;4203;48.144;14.118;2022-07-09T13:39:14;27.40;96.20
8332;DHT22;4203;48.144;14.118;2022-07-09T13:41:41;27.60;95.70
8332;DHT22;4203;48.144;14.118;2022-07-09T13:44:08;27.80;97.00
8332;DHT22;4203;48.144;14.118;2022-07-09T13:46:36;27.90;97.80
8332;DHT22;4203;48.144;14.118;2022-07-09T13:49:03;28.00;94.30
8332;DHT22;4203;48.144;14.118;2022-07-09T13:51:31;27.90;94.90
8332;DHT22;4203;48.144;14.118;2022-07-09T13:53:59;27.70;93.20
8332;DHT22;4203;48.144;14.118;2022-07-09T13:56:26;27.40;94.80
8332;DHT22;4203;48.144;14.118;2022-07-09T13:58:54;27.10;96.60
8332;DHT22;4203;48.144;14.118;2022-07-09T14:01:21;27.00;95.60
8332;DHT22;4203;48.144;14.118;2022-07-09T14:03:48;26.70;94.80
8332;DHT22;4203;48.144;14.118;2022-07-09T14:06:16;26.20;94.50
8332;DHT22;4203;48.144;14.118;2022-07-09T14:08:44;25.90;96.00
8332;DHT22;4203;48.144;14.118;2022-07-09T14:11:11;25.70;94.80
8332;DHT22;4203;48.144;14.118;2022-07-09T14:13:39;25.60;95.00
8332;DHT22;4203;48.144;14.118;2022-07-09T14:16:07;25.50;95.80
8332;DHT22;4203;48.144;14.118;2022-07-09T14:18:34;25.40;94.90
8332;DHT22;4203;48.144;14.118;2022-07-09T14:21:01;25.30;98.40
8332;DHT22;4203;48.144;14.118;2022-07-09T14:23:28;25.50;97.20
8332;DHT22;4203;48.144;14.118;2022-07-09T14:25:57;25.60;97.40
8332;DHT22;4203;48.144;14.118;2022-07-09T14:28:24;25.90;99.10
8332;DHT22;4203;48.144;14.118;2022-07-09T14:30:52;26.00;99.40
8332;DHT22;4203;48.144;14.118;2022-07-09T14:33:19;26.20;95.30
8332;DHT22;4203;48.144;14.118;2022-07-09T14:35:46;26.00;98.50
8332;DHT22;4203;48.144;14.118;2022-07-09T14:38:13;26.10;97.90
8332;DHT22;4203;48.144;14.118;2022-07-09T14:40:41;26.10;98.90
8332;DHT22;4203;48.144;14.118;2022-07-09T14:43:10;26.10;97.60
8332;DHT22;4203;48.144;14.118;2022-07-09T14:45:38;26.20;97.40
8332;DHT22;4203;48.144;14.118;2022-07-09T14:48:05;26.20;97.30
8332;DHT22;4203;48.144;14.118;2022-07-09T14:50:34;26.10;96.40
8332;DHT22;4203;48.144;14.118;2022-07-09T14:53:01;25.90;97.10
8332;DHT22;4203;48.144;14.118;2022-07-09T14:55:29;25.70;95.70
8332;DHT22;4203;48.144;14.118;2022-07-09T14:57:56;25.50;98.50
8332;DHT22;4203;48.144;14.118;2022-07-09T15:00:25;25.40;96.10
8332;DHT22;4203;48.144;14.118;2022-07-09T15:02:52;25.20;96.40
8332;DHT22;4203;48.144;14.118;2022-07-09T15:05:19;25.10;99.30
8332;DHT22;4203;48.144;14.118;2022-07-09T15:07:47;25.00;98.90
8332;DHT22;4203;48.144;14.118;2022-07-09T15:10:15;24.90;96.60
8332;DHT22;4203;48.144;14.118;2022-07-09T15:12:42;24.70;96.20
8332;DHT22;4203;48.144;14.118;2022-07-09T15:15:09;24.60;98.80
8332;DHT22;4203;48.144;14.118;2022-07-09T15:17:38;24.50;98.10
8332;DHT22;4203;48.144;14.118;2022-07-09T15:20:06;24.30;98.60
8332;DHT22;4203;48.144;14.118;2022-07-09T15:22:33;24.40;98.80
8332;DHT22;4203;48.144;14.118;2022-07-09T15:25:01;24.50;99.00
8332;DHT22;4203;48.144;14.118;2022-07-09T15:27:30;24.20;98.00
8332;DHT22;4203;48.144;14.118;2022-07-09T15:29:58;24.20;98.30
8332;DHT22;4203;48.144;14.118;2022-07-09T15:32:26;24.20;96.60
8332;DHT22;4203;48.144;14.118;2022-07-09T15:34:55;24.10;99.90
8332;DHT22;4203;48.144;14.118;2022-07-09T15:37:22;24.20;99.90
8332;DHT22;4203;48.144;14.118;2022-07-09T15:39:49;24.40;98.80
8332;DHT22;4203;48.144;14.118;2022-07-09T15:42:17;24.50;97.40
8332;DHT22;4203;48.144;14.118;2022-07-09T15:44:45;24.40;96.60
8332;DHT22;4203;48.144;14.118;2022-07-09T15:47:12;24.40;99.90
8332;DHT22;4203;48.144;14.118;2022-07-09T15:49:39;24.40;97.00